createdAt,value
2023-05-01T00:01:34.677Z,11.27
2023-05-01T00:04:03.040Z,11.37
2023-05-01T00:06:33.433Z,11.47
2023-05-01T00:09:01.756Z,12.07
2023-05-01T00:11:30.153Z,12.83
2023-05-01T00:13:59.676Z,12.57
2023-05-01T00:16:27.872Z,12.53
2023-05-01T00:18:56.124Z,11.07
2023-05-01T00:21:24.754Z,12.97
2023-05-01T00:23:53.093Z,10.93
2023-05-01T00:26:21.736Z,11.23
2023-05-01T00:28:50.617Z,11.00
2023-05-01T00:31:20.584Z,13.23
2023-05-01T00:33:49.377Z,10.33
2023-05-01T00:36:17.580Z,13.23
2023-05-01T00:38:46.293Z,10.70
2023-05-01T00:41:14.748Z,11.70
2023-05-01T00:43:43.026Z,10.20
2023-05-01T00:46:12.173Z,12.90
2023-05-01T00:48:41.748Z,11.87
2023-05-01T00:51:10.586Z,13.27
2023-05-01T00:53:41.188Z,11.60
2023-05-01T00:56:10.724Z,12.37
2023-05-01T00:58:39.561Z,12.60
2023-05-01T01:01:08.974Z,11.23
2023-05-01T01:03:37.296Z,13.53
2023-05-01T01:06:11.531Z,12.00
2023-05-01T01:08:44.148Z,12.13
2023-05-01T01:11:21.788Z,13.27
2023-05-01T01:13:59.931Z,11.97
2023-05-01T01:16:33.938Z,12.90
2023-05-01T01:19:15.759Z,10.03
2023-05-01T01:21:50.534Z,9.93
2023-05-01T01:24:47.334Z,11.00
2023-05-01T01:27:38.850Z,9.60
2023-05-01T01:30:35.656Z,13.17
2023-05-01T01:33:26.303Z,14.37
2023-05-01T01:35:58.693Z,12.93
2023-05-01T01:38:36.931Z,16.47
2023-05-01T01:41:11.126Z,15.33
2023-05-01T01:43:43.288Z,15.47
2023-05-01T01:46:12.069Z,20.00
2023-05-01T01:48:43.872Z,21.53
2023-05-01T01:51:17.635Z,15.93
2023-05-01T01:53:50.858Z,14.20
2023-05-01T01:56:21.512Z,17.97
2023-05-01T01:58:51.798Z,14.13
2023-05-01T02:01:23.074Z,14.00
2023-05-01T02:03:52.919Z,13.50
2023-05-01T02:06:24.403Z,17.20
2023-05-01T02:08:53.181Z,16.40
2023-05-01T02:11:23.959Z,24.80
2023-05-01T02:13:54.004Z,20.90
2023-05-01T02:16:25.560Z,21.77
2023-05-01T02:18:55.522Z,20.33
2023-05-01T02:21:28.058Z,20.90
2023-05-01T02:23:58.445Z,16.83
2023-05-01T02:26:28.850Z,18.97
2023-05-01T02:28:57.633Z,19.17
2023-05-01T02:31:25.994Z,17.40
2023-05-01T02:33:54.222Z,16.17
2023-05-01T02:36:22.576Z,21.07
2023-05-01T02:38:52.263Z,19.23
2023-05-01T02:41:22.654Z,18.33
2023-05-01T02:43:55.723Z,19.67
2023-05-01T02:46:27.487Z,19.73
2023-05-01T02:48:57.566Z,20.40
2023-05-01T02:51:26.637Z,22.63
2023-05-01T02:53:57.146Z,24.83
2023-05-01T02:56:27.943Z,21.77
2023-05-01T02:58:56.964Z,25.50
2023-05-01T03:01:25.299Z,27.17
2023-05-01T03:03:53.676Z,27.70
2023-05-01T03:06:21.911Z,34.40
2023-05-01T03:08:50.283Z,33.57
2023-05-01T03:11:19.777Z,30.47
2023-05-01T03:13:47.895Z,32.40
2023-05-01T03:16:16.154Z,29.90
2023-05-01T03:18:48.595Z,29.93
2023-05-01T03:21:16.911Z,27.83
2023-05-01T03:23:45.130Z,27.30
2023-05-01T03:26:13.722Z,28.00
2023-05-01T03:28:43.342Z,30.57
2023-05-01T03:31:11.550Z,29.53
2023-05-01T03:33:40.124Z,29.13
2023-05-01T03:36:11.225Z,30.33
2023-05-01T03:38:40.023Z,28.27
2023-05-01T03:41:08.180Z,26.67
2023-05-01T03:43:36.886Z,29.83
2023-05-01T03:46:06.677Z,29.77
2023-05-01T03:48:35.043Z,34.00
2023-05-01T03:51:03.401Z,31.37
2023-05-01T03:53:32.567Z,33.17
2023-05-01T03:56:00.774Z,33.30
2023-05-01T03:58:29.206Z,36.10
2023-05-01T04:01:00.808Z,39.83
2023-05-01T04:03:30.883Z,35.73
2023-05-01T04:05:59.533Z,38.93
2023-05-01T04:08:28.228Z,34.13
2023-05-01T04:10:56.702Z,35.10
2023-05-01T04:13:25.099Z,34.97
2023-05-01T04:15:55.272Z,34.47
2023-05-01T04:18:23.595Z,31.93
2023-05-01T04:20:53.444Z,34.47
2023-05-01T04:23:23.194Z,30.50
2023-05-01T04:25:53.443Z,31.33
2023-05-01T04:28:22.047Z,37.57
2023-05-01T04:30:50.400Z,37.20
2023-05-01T04:33:19.211Z,40.77
2023-05-01T04:35:47.354Z,42.47
2023-05-01T04:38:17.159Z,44.57
2023-05-01T04:40:45.458Z,44.80
2023-05-01T04:43:14.406Z,45.47
2023-05-01T04:45:43.255Z,45.77
2023-05-01T04:48:11.625Z,46.07
2023-05-01T04:50:40.265Z,49.50
2023-05-01T04:53:08.726Z,55.67
2023-05-01T04:55:39.321Z,52.73
2023-05-01T04:58:07.688Z,53.43
2023-05-01T05:00:35.828Z,53.63
2023-05-01T05:03:04.872Z,53.63
2023-05-01T05:05:33.302Z,54.27
2023-05-01T05:08:02.579Z,52.60
2023-05-01T05:10:31.048Z,55.77
2023-05-01T05:13:00.826Z,57.23
2023-05-01T05:15:29.000Z,59.83
2023-05-01T05:17:57.344Z,63.40
2023-05-01T05:20:26.052Z,61.80
2023-05-01T05:22:54.367Z,55.57
2023-05-01T05:25:22.622Z,60.37
2023-05-01T05:27:50.981Z,57.53
2023-05-01T05:30:20.887Z,52.40
2023-05-01T05:32:49.189Z,52.60
2023-05-01T05:35:17.847Z,54.67
2023-05-01T05:37:46.460Z,53.97
2023-05-01T05:40:16.036Z,54.73
2023-05-01T05:42:44.232Z,53.00
2023-05-01T05:45:12.765Z,50.33
2023-05-01T05:47:42.849Z,50.23
2023-05-01T05:50:11.926Z,56.73
2023-05-01T05:52:40.366Z,47.77
2023-05-01T05:55:10.096Z,50.63
2023-05-01T05:57:38.305Z,49.17
2023-05-01T06:00:09.282Z,50.77
2023-05-01T06:02:38.196Z,50.20
2023-05-01T06:05:10.398Z,49.07
2023-05-01T06:07:39.016Z,51.20
2023-05-01T06:10:08.613Z,50.37
2023-05-01T06:12:41.174Z,54.63
2023-05-01T06:15:16.955Z,54.70
2023-05-01T06:17:45.861Z,57.97
2023-05-01T06:20:16.792Z,55.60
2023-05-01T06:22:45.137Z,63.93
2023-05-01T06:25:13.876Z,59.10
2023-05-01T06:27:42.116Z,62.23
2023-05-01T06:30:12.219Z,58.43
2023-05-01T06:32:42.130Z,58.70
2023-05-01T06:35:11.406Z,65.47
2023-05-01T06:37:41.549Z,61.67
2023-05-01T06:40:11.365Z,62.50
2023-05-01T06:42:40.835Z,64.40
2023-05-01T06:45:09.720Z,64.07
2023-05-01T06:47:39.468Z,60.27
2023-05-01T06:50:09.118Z,61.53
2023-05-01T06:52:37.294Z,60.60
2023-05-01T06:55:08.198Z,61.70
2023-05-01T06:57:36.869Z,60.97
2023-05-01T07:00:05.938Z,61.00
2023-05-01T07:02:37.107Z,61.40
2023-05-01T07:05:06.077Z,61.80
2023-05-01T07:07:34.349Z,63.83
2023-05-01T07:10:02.836Z,59.60
2023-05-01T07:12:32.799Z,59.90
2023-05-01T07:15:01.652Z,59.37
2023-05-01T07:17:30.596Z,58.03
2023-05-01T07:19:58.871Z,56.87
2023-05-01T07:22:28.876Z,55.83
2023-05-01T07:24:57.207Z,52.33
2023-05-01T07:27:25.734Z,51.50
2023-05-01T07:29:57.374Z,48.43
2023-05-01T07:32:26.053Z,45.17
2023-05-01T07:34:54.771Z,39.23
2023-05-01T07:37:24.025Z,40.23
2023-05-01T07:39:52.183Z,40.87
2023-05-01T07:42:22.069Z,39.97
2023-05-01T07:44:51.812Z,39.90
2023-05-01T07:47:22.532Z,40.53
2023-05-01T07:49:50.989Z,42.77
2023-05-01T07:52:19.162Z,39.20
2023-05-01T07:54:50.888Z,38.40
2023-05-01T07:57:19.449Z,39.57
2023-05-01T07:59:47.884Z,36.53
2023-05-01T08:02:18.186Z,37.07
2023-05-01T08:04:48.499Z,37.37
2023-05-01T08:07:18.887Z,36.20
2023-05-01T08:09:47.602Z,35.03
2023-05-01T08:12:15.886Z,33.33
2023-05-01T08:14:44.192Z,34.70
2023-05-01T08:17:12.476Z,33.97
2023-05-01T08:19:40.815Z,33.03
2023-05-01T08:22:10.550Z,29.93
2023-05-01T08:24:41.903Z,29.47
2023-05-01T08:27:10.446Z,27.47
2023-05-01T08:29:39.057Z,28.00
2023-05-01T08:32:07.228Z,29.87
2023-05-01T08:34:36.338Z,21.37
2023-05-01T08:37:05.016Z,25.27
2023-05-01T08:39:34.862Z,21.97
2023-05-01T08:42:04.791Z,22.10
2023-05-01T08:44:35.553Z,21.40
2023-05-01T08:47:12.676Z,20.40
2023-05-01T08:49:43.114Z,20.27
2023-05-01T08:52:13.134Z,18.20
2023-05-01T08:54:45.261Z,17.53
2023-05-01T08:57:14.872Z,19.13
2023-05-01T08:59:50.919Z,20.20
2023-05-01T09:02:20.678Z,22.67
2023-05-01T09:04:50.143Z,18.00
2023-05-01T09:07:21.262Z,18.83
2023-05-01T09:09:50.790Z,18.80
2023-05-01T09:12:24.405Z,18.97
2023-05-01T09:14:54.342Z,21.40
2023-05-01T09:17:24.173Z,19.53
2023-05-01T09:19:52.944Z,23.17
2023-05-01T09:22:22.323Z,23.03
2023-05-01T09:24:52.877Z,22.90
2023-05-01T09:27:21.331Z,23.20
2023-05-01T09:29:50.203Z,23.67
2023-05-01T09:32:21.221Z,22.63
2023-05-01T09:34:50.514Z,22.07
2023-05-01T09:37:30.573Z,19.73
2023-05-01T09:40:09.337Z,18.17
2023-05-01T09:42:40.971Z,15.50
2023-05-01T09:45:14.943Z,16.23
2023-05-01T09:47:44.086Z,18.20
2023-05-01T09:50:29.349Z,17.63
2023-05-01T09:52:58.291Z,18.37
2023-05-01T09:55:28.408Z,18.57
2023-05-01T09:57:58.842Z,18.97
2023-05-01T10:00:27.843Z,18.63
2023-05-01T10:02:57.411Z,17.73
2023-05-01T10:05:26.265Z,15.80
2023-05-01T10:08:00.328Z,16.77
2023-05-01T10:10:30.146Z,15.40
2023-05-01T10:13:14.231Z,16.20
2023-05-01T10:15:43.101Z,13.93
2023-05-01T10:18:12.324Z,14.23
2023-05-01T10:21:00.312Z,11.87
2023-05-01T10:23:29.346Z,12.00
2023-05-01T10:26:00.818Z,13.50
2023-05-01T10:28:30.745Z,12.70
2023-05-01T10:30:59.639Z,13.17
2023-05-01T10:33:27.876Z,13.03
2023-05-01T10:36:00.142Z,12.73
2023-05-01T10:38:35.133Z,13.27
2023-05-01T10:41:06.258Z,13.70
2023-05-01T10:43:34.598Z,13.87
2023-05-01T10:46:28.420Z,14.77
2023-05-01T10:48:58.176Z,13.87
2023-05-01T10:51:28.526Z,15.47
2023-05-01T10:54:28.116Z,14.30
2023-05-01T10:57:00.029Z,14.33
2023-05-01T10:59:29.414Z,15.00
2023-05-01T11:01:57.799Z,14.73
2023-05-01T11:04:54.128Z,14.00
2023-05-01T11:07:24.846Z,14.53
2023-05-01T11:09:58.923Z,15.00
2023-05-01T11:12:51.041Z,14.23
2023-05-01T11:15:33.002Z,15.13
2023-05-01T11:18:02.262Z,15.93
2023-05-01T11:20:57.738Z,14.57
2023-05-01T11:23:25.969Z,15.30
2023-05-01T11:26:05.946Z,16.43
2023-05-01T11:28:36.654Z,16.27
2023-05-01T11:31:05.391Z,15.73
2023-05-01T11:33:34.597Z,13.70
2023-05-01T11:36:05.130Z,14.07
2023-05-01T11:38:33.311Z,12.30
2023-05-01T11:41:04.353Z,12.90
2023-05-01T11:43:32.860Z,13.33
2023-05-01T11:46:05.606Z,12.17
2023-05-01T11:48:33.926Z,11.97
2023-05-01T11:51:13.894Z,10.33
2023-05-01T11:53:42.203Z,12.00
2023-05-01T11:56:26.542Z,11.13
2023-05-01T11:58:56.098Z,10.37
2023-05-01T12:01:36.325Z,11.30
2023-05-01T12:04:05.191Z,10.40
2023-05-01T12:06:44.070Z,10.43
2023-05-01T12:09:17.303Z,10.70
2023-05-01T12:11:47.574Z,14.17
2023-05-01T12:14:16.741Z,12.80
2023-05-01T12:16:47.485Z,12.23
2023-05-01T12:19:17.550Z,12.07
2023-05-01T12:21:45.959Z,13.00
2023-05-01T12:24:16.884Z,12.07
2023-05-01T12:26:46.605Z,12.73
2023-05-01T12:29:14.805Z,13.27
2023-05-01T12:31:50.584Z,12.03
2023-05-01T12:34:30.611Z,12.20
2023-05-01T12:36:59.233Z,12.03
2023-05-01T12:39:27.660Z,12.00
2023-05-01T12:41:56.392Z,14.20
2023-05-01T12:44:25.808Z,11.90
2023-05-01T12:46:57.178Z,12.30
2023-05-01T12:49:26.561Z,11.30
2023-05-01T12:51:57.154Z,11.47
2023-05-01T12:54:28.503Z,10.37
2023-05-01T12:57:07.818Z,10.73
2023-05-01T12:59:37.722Z,10.50
2023-05-01T13:02:10.911Z,9.93
2023-05-01T13:04:39.375Z,10.67
2023-05-01T13:07:12.690Z,9.43
2023-05-01T13:09:41.365Z,9.27
2023-05-01T13:12:10.543Z,9.97
2023-05-01T13:14:41.800Z,8.97
2023-05-01T13:17:13.001Z,8.80
2023-05-01T13:19:43.072Z,8.77
2023-05-01T13:22:11.452Z,7.47
2023-05-01T13:24:40.610Z,8.40
2023-05-01T13:27:10.106Z,7.93
2023-05-01T13:29:39.220Z,7.17
2023-05-01T13:32:13.421Z,7.47
2023-05-01T13:34:43.739Z,7.23
2023-05-01T13:37:13.650Z,7.27
2023-05-01T13:39:43.284Z,7.20
2023-05-01T13:42:13.264Z,7.13
2023-05-01T13:44:44.991Z,7.77
2023-05-01T13:47:17.764Z,9.63
2023-05-01T13:49:48.792Z,7.50
2023-05-01T13:52:19.203Z,7.63
2023-05-01T13:54:48.630Z,8.80
2023-05-01T13:57:17.342Z,7.93
2023-05-01T13:59:48.423Z,7.30
2023-05-01T14:02:25.604Z,6.90
2023-05-01T14:04:58.305Z,7.77
2023-05-01T14:07:28.430Z,7.10
2023-05-01T14:09:59.632Z,7.47
2023-05-01T14:12:30.973Z,7.23
2023-05-01T14:15:01.571Z,7.73
2023-05-01T14:17:35.271Z,7.67
2023-05-01T14:20:05.042Z,7.00
2023-05-01T14:22:44.273Z,7.43
2023-05-01T14:25:25.904Z,7.83
2023-05-01T14:27:57.084Z,5.90
2023-05-01T14:30:29.245Z,6.77
2023-05-01T14:32:59.585Z,6.37
2023-05-01T14:35:28.783Z,6.20
2023-05-01T14:37:58.977Z,6.63
2023-05-01T14:40:30.730Z,7.07
2023-05-01T14:42:59.264Z,6.77
2023-05-01T14:45:28.416Z,8.00
2023-05-01T14:47:57.308Z,6.70
2023-05-01T14:50:27.224Z,6.60
2023-05-01T14:52:57.564Z,7.00
2023-05-01T14:55:29.487Z,6.97
2023-05-01T14:57:58.572Z,7.03
2023-05-01T15:00:27.919Z,7.83
2023-05-01T15:02:56.500Z,7.27
2023-05-01T15:05:28.492Z,7.83
2023-05-01T15:08:00.409Z,7.43
2023-05-01T15:10:31.842Z,7.30
2023-05-01T15:13:00.027Z,7.73
2023-05-01T15:15:28.566Z,7.50
2023-05-01T15:17:57.367Z,7.13
2023-05-01T15:20:28.311Z,7.50
2023-05-01T15:22:56.801Z,7.20
2023-05-01T15:25:26.169Z,7.30
2023-05-01T15:27:54.532Z,6.33
2023-05-01T15:30:32.305Z,8.87
2023-05-01T15:33:04.056Z,7.07
2023-05-01T15:35:34.142Z,6.90
2023-05-01T15:38:03.840Z,6.57
2023-05-01T15:40:33.517Z,19.90
2023-05-01T15:43:05.332Z,9.40
2023-05-01T15:45:33.906Z,11.07
2023-05-01T15:48:03.136Z,8.43
2023-05-01T15:50:32.282Z,6.90
2023-05-01T15:53:02.754Z,7.07
2023-05-01T15:55:31.542Z,8.30
2023-05-01T15:58:00.056Z,6.80
2023-05-01T16:00:28.855Z,7.43
2023-05-01T16:02:57.367Z,8.17
2023-05-01T16:05:26.270Z,7.60
2023-05-01T16:08:00.455Z,7.00
2023-05-01T16:10:37.146Z,7.20
2023-05-01T16:13:06.781Z,7.50
2023-05-01T16:15:35.985Z,8.43
2023-05-01T16:18:05.658Z,8.10
2023-05-01T16:20:36.706Z,9.33
2023-05-01T16:23:05.490Z,8.43
2023-05-01T16:25:35.736Z,7.77
2023-05-01T16:28:07.032Z,8.00
2023-05-01T16:30:35.712Z,8.20
2023-05-01T16:33:04.701Z,8.43
2023-05-01T16:35:36.474Z,9.70
2023-05-01T16:38:07.099Z,9.97
2023-05-01T16:40:37.695Z,9.23
2023-05-01T16:43:06.513Z,9.03
2023-05-01T16:45:38.490Z,8.87
2023-05-01T16:48:07.526Z,8.87
2023-05-01T16:50:40.561Z,8.10
2023-05-01T16:53:09.658Z,9.23
2023-05-01T16:55:39.882Z,8.60
2023-05-01T16:58:09.129Z,8.23
2023-05-01T17:00:38.888Z,10.03
2023-05-01T17:03:07.851Z,8.63
2023-05-01T17:05:36.562Z,8.93
2023-05-01T17:08:09.236Z,8.53
2023-05-01T17:10:41.613Z,9.27
2023-05-01T17:13:10.436Z,8.20
2023-05-01T17:15:39.126Z,8.13
2023-05-01T17:18:07.936Z,9.57
2023-05-01T17:20:36.757Z,8.67
2023-05-01T17:23:05.427Z,10.10
2023-05-01T17:25:34.016Z,11.20
2023-05-01T17:28:04.072Z,10.80
2023-05-01T17:30:32.522Z,10.50
2023-05-01T17:33:01.360Z,13.10
2023-05-01T17:35:29.951Z,10.03
2023-05-01T17:37:59.172Z,10.07
2023-05-01T17:40:28.237Z,10.03
2023-05-01T17:42:56.789Z,10.30
2023-05-01T17:45:27.159Z,9.80
2023-05-01T17:47:55.465Z,9.20
2023-05-01T17:50:23.805Z,9.67
2023-05-01T17:52:52.932Z,9.63
2023-05-01T17:55:21.679Z,8.90
2023-05-01T17:57:50.299Z,9.23
2023-05-01T18:00:19.902Z,8.77
2023-05-01T18:02:50.053Z,8.47
2023-05-01T18:05:18.802Z,7.93
2023-05-01T18:07:47.234Z,7.60
2023-05-01T18:10:16.155Z,7.03
2023-05-01T18:12:47.058Z,7.97
2023-05-01T18:15:19.345Z,7.23
2023-05-01T18:18:09.600Z,7.13
2023-05-01T18:20:40.535Z,7.33
2023-05-01T18:23:10.368Z,7.77
2023-05-01T18:25:40.409Z,7.50
2023-05-01T18:28:08.987Z,7.07
2023-05-01T18:30:38.391Z,7.20
2023-05-01T18:33:07.292Z,8.17
2023-05-01T18:35:39.808Z,6.80
2023-05-01T18:38:09.110Z,6.80
2023-05-01T18:40:37.899Z,8.60
2023-05-01T18:43:10.404Z,10.03
2023-05-01T18:45:38.951Z,11.77
2023-05-01T18:48:08.349Z,12.40
2023-05-01T18:50:38.661Z,11.83
2023-05-01T18:53:07.672Z,10.43
2023-05-01T18:55:37.603Z,10.70
2023-05-01T18:58:06.219Z,9.27
2023-05-01T19:00:36.774Z,9.43
2023-05-01T19:03:06.048Z,8.13
2023-05-01T19:05:36.010Z,7.20
2023-05-01T19:08:07.462Z,8.07
2023-05-01T19:10:37.856Z,7.63
2023-05-01T19:13:07.170Z,7.50
2023-05-01T19:15:40.710Z,7.10
2023-05-01T19:18:11.413Z,8.67
2023-05-01T19:20:41.391Z,7.80
2023-05-01T19:23:10.976Z,8.33
2023-05-01T19:25:40.094Z,8.63
2023-05-01T19:28:08.553Z,7.93
2023-05-01T19:30:39.272Z,7.53
2023-05-01T19:33:10.631Z,8.47
2023-05-01T19:35:41.312Z,8.33
2023-05-01T19:38:43.987Z,7.90
2023-05-01T19:41:16.212Z,7.97
2023-05-01T19:43:45.238Z,7.73
2023-05-01T19:46:16.064Z,7.50
2023-05-01T19:48:47.689Z,7.83
2023-05-01T19:51:16.582Z,8.40
2023-05-01T19:53:51.979Z,7.87
2023-05-01T19:56:21.530Z,7.77
2023-05-01T19:58:51.150Z,9.40
2023-05-01T20:01:31.566Z,8.23
2023-05-01T20:04:09.357Z,8.33
2023-05-01T20:06:45.629Z,7.70
2023-05-01T20:09:15.535Z,7.73
2023-05-01T20:11:44.074Z,8.63
2023-05-01T20:14:12.308Z,10.10
2023-05-01T20:16:43.238Z,9.30
2023-05-01T20:19:12.804Z,8.73
2023-05-01T20:21:48.579Z,8.63
2023-05-01T20:24:22.412Z,8.20
2023-05-01T20:26:55.906Z,8.80
2023-05-01T20:29:26.751Z,8.40
2023-05-01T20:32:00.431Z,10.30
2023-05-01T20:34:30.801Z,9.70
2023-05-01T20:36:59.806Z,8.80
2023-05-01T20:39:31.480Z,9.40
2023-05-01T20:42:00.881Z,9.77
2023-05-01T20:44:29.626Z,10.23
2023-05-01T20:46:58.771Z,10.13
2023-05-01T20:49:28.440Z,9.80
2023-05-01T20:51:58.462Z,10.80
2023-05-01T20:54:32.421Z,9.80
2023-05-01T20:57:17.775Z,9.07
2023-05-01T20:59:50.068Z,9.63
2023-05-01T21:02:18.533Z,9.27
2023-05-01T21:04:47.259Z,9.60
2023-05-01T21:07:15.858Z,10.23
2023-05-01T21:09:45.814Z,8.90
2023-05-01T21:12:15.448Z,8.93
2023-05-01T21:14:46.311Z,9.00
2023-05-01T21:17:16.773Z,9.50
2023-05-01T21:19:46.770Z,8.87
2023-05-01T21:22:16.908Z,8.67
2023-05-01T21:24:46.063Z,9.10
2023-05-01T21:27:14.437Z,8.57
2023-05-01T21:29:44.900Z,8.43
2023-05-01T21:32:13.725Z,8.87
2023-05-01T21:34:41.930Z,8.90
2023-05-01T21:37:10.930Z,9.27
2023-05-01T21:39:39.762Z,10.00
2023-05-01T21:42:08.976Z,9.03
2023-05-01T21:44:37.505Z,9.50
2023-05-01T21:47:07.759Z,10.07
2023-05-01T21:49:38.172Z,8.93
2023-05-01T21:52:08.755Z,10.20
2023-05-01T21:54:37.891Z,10.20
2023-05-01T21:57:07.738Z,9.87
2023-05-01T21:59:38.856Z,9.83
2023-05-01T22:02:11.080Z,10.87
2023-05-01T22:04:40.310Z,9.60
2023-05-01T22:07:09.867Z,10.37
2023-05-01T22:09:38.213Z,9.80
2023-05-01T22:12:06.720Z,9.90
2023-05-01T22:14:46.740Z,10.83
2023-05-01T22:17:23.884Z,10.63
2023-05-01T22:19:52.455Z,11.17
2023-05-01T22:22:20.982Z,12.23
2023-05-01T22:24:49.303Z,10.90
2023-05-01T22:27:17.669Z,11.00
2023-05-01T22:29:47.418Z,10.60
2023-05-01T22:32:17.009Z,10.67
2023-05-01T22:34:45.282Z,11.00
2023-05-01T22:41:13.331Z,10.33
2023-05-01T22:43:41.704Z,10.33
2023-05-01T22:46:09.979Z,11.00
2023-05-01T22:48:39.476Z,10.23
2023-05-01T22:51:08.169Z,11.90
2023-05-01T22:53:37.773Z,10.83
2023-05-01T22:56:06.980Z,10.20
2023-05-01T22:58:35.341Z,10.53
2023-05-01T23:01:03.529Z,9.97
2023-05-01T23:03:33.408Z,10.23
2023-05-01T23:06:04.986Z,9.77
2023-05-01T23:08:34.169Z,10.30
2023-05-01T23:11:02.903Z,10.50
2023-05-01T23:13:32.272Z,10.07
2023-05-01T23:16:02.082Z,9.73
2023-05-01T23:18:32.796Z,10.60
2023-05-01T23:21:00.929Z,10.80
2023-05-01T23:23:32.421Z,10.93
2023-05-01T23:26:01.228Z,10.07
2023-05-01T23:28:30.408Z,10.37
2023-05-01T23:31:00.522Z,10.50
2023-05-01T23:33:34.846Z,10.80
2023-05-01T23:36:03.141Z,10.53
2023-05-01T23:38:33.146Z,10.90
2023-05-01T23:41:01.472Z,12.33
2023-05-01T23:43:29.655Z,12.33
2023-05-01T23:45:57.993Z,12.53
2023-05-01T23:48:26.565Z,12.97
2023-05-01T23:50:55.317Z,12.90
2023-05-01T23:53:23.793Z,15.00
2023-05-01T23:55:53.610Z,12.63
2023-05-01T23:58:21.797Z,15.00
